createdAt,value
2018-09-12T00:00:17.859Z,95771.36
2018-09-12T00:02:45.944Z,95771.80
2018-09-12T00:05:14.551Z,95772.36
2018-09-12T00:07:42.435Z,95772.03
2018-09-12T00:10:11.348Z,95767.59
2018-09-12T00:12:42.756Z,95765.03
2018-09-12T00:15:10.744Z,95759.85
2018-09-12T00:17:38.709Z,95766.71
2018-09-12T00:20:06.737Z,95766.38
2018-09-12T00:22:34.675Z,95765.28
2018-09-12T00:25:02.881Z,95774.53
2018-09-12T00:27:30.849Z,95767.48
2018-09-12T00:29:58.807Z,95772.24
2018-09-12T00:32:26.702Z,95776.65
2018-09-12T00:34:54.574Z,95779.78
2018-09-12T00:37:22.578Z,95787.02
2018-09-12T00:39:50.556Z,95778.99
2018-09-12T00:42:18.513Z,95780.66
2018-09-12T00:44:46.635Z,95793.03
2018-09-12T00:47:14.631Z,95794.91
2018-09-12T00:49:42.846Z,95791.17
2018-09-12T00:52:10.804Z,95796.61
2018-09-12T00:54:39.212Z,95791.01
2018-09-12T00:57:07.202Z,95796.70
2018-09-12T00:59:35.170Z,95793.89
2018-09-12T01:02:03.091Z,95799.93
2018-09-12T01:04:31.241Z,95801.75
2018-09-12T01:06:59.267Z,95804.16
2018-09-12T01:09:27.238Z,95800.50
2018-09-12T01:11:55.248Z,95804.59
2018-09-12T01:14:23.393Z,95805.05
2018-09-12T01:16:54.342Z,95801.27
2018-09-12T01:19:22.348Z,95798.99
2018-09-12T01:21:50.379Z,95798.70
2018-09-12T01:24:18.379Z,95804.77
2018-09-12T01:26:46.494Z,95798.10
2018-09-12T01:29:14.774Z,95806.85
2018-09-12T01:31:42.886Z,95813.73
2018-09-12T01:34:10.880Z,95808.41
2018-09-12T01:36:39.196Z,95814.55
2018-09-12T01:39:08.194Z,95806.34
2018-09-12T01:41:36.445Z,95819.08
2018-09-12T01:44:04.440Z,95814.46
2018-09-12T01:46:32.603Z,95806.49
2018-09-12T01:49:01.114Z,95806.96
2018-09-12T01:51:29.131Z,95813.37
2018-09-12T01:53:57.037Z,95816.63
2018-09-12T01:56:25.008Z,95816.18
2018-09-12T01:58:53.282Z,95803.03
2018-09-12T02:01:21.280Z,95811.40
2018-09-12T02:03:49.284Z,95810.53
2018-09-12T02:06:17.184Z,95805.12
2018-09-12T02:08:45.136Z,95803.81
2018-09-12T02:11:13.059Z,95809.45
2018-09-12T02:13:41.183Z,95810.77
2018-09-12T02:16:09.202Z,95808.04
2018-09-12T02:18:37.434Z,95811.30
2018-09-12T02:21:05.387Z,95807.40
2018-09-12T02:23:33.413Z,95798.44
2018-09-12T02:26:01.293Z,95803.02
2018-09-12T02:28:29.201Z,95796.22
2018-09-12T02:30:57.259Z,95801.84
2018-09-12T02:33:25.246Z,95800.63
2018-09-12T02:35:58.674Z,95807.42
2018-09-12T02:38:26.558Z,95807.11
2018-09-12T02:40:54.624Z,95803.73
2018-09-12T02:43:22.576Z,95801.52
2018-09-12T02:45:50.514Z,95791.86
2018-09-12T02:48:18.592Z,95802.09
2018-09-12T02:50:46.550Z,95799.27
2018-09-12T02:53:14.390Z,95800.19
2018-09-12T02:55:42.324Z,95795.82
2018-09-12T02:58:10.271Z,95805.20
2018-09-12T03:00:38.166Z,95799.13
2018-09-12T03:03:06.573Z,95798.96
2018-09-12T03:05:34.614Z,95797.64
2018-09-12T03:08:02.635Z,95801.80
2018-09-12T03:10:30.969Z,95803.41
2018-09-12T03:12:58.970Z,95800.35
2018-09-12T03:15:26.956Z,95805.94
2018-09-12T03:17:54.995Z,95804.02
2018-09-12T03:20:23.038Z,95803.42
2018-09-12T03:22:50.934Z,95807.34
2018-09-12T03:25:18.859Z,95807.94
2018-09-12T03:27:46.730Z,95803.34
2018-09-12T03:30:14.727Z,95801.05
2018-09-12T03:32:42.734Z,95801.27
2018-09-12T03:35:10.684Z,95805.17
2018-09-12T03:37:38.560Z,95804.01
2018-09-12T03:40:06.841Z,95804.51
2018-09-12T03:42:34.803Z,95802.86
2018-09-12T03:45:02.859Z,95809.36
2018-09-12T03:47:30.799Z,95803.42
2018-09-12T03:49:58.722Z,95813.66
2018-09-12T03:52:26.788Z,95818.97
2018-09-12T03:54:54.721Z,95815.46
2018-09-12T03:57:22.643Z,95819.97
2018-09-12T03:59:50.659Z,95816.11
2018-09-12T04:02:18.531Z,95811.89
2018-09-12T04:04:46.566Z,95815.77
2018-09-12T04:07:14.486Z,95821.09
2018-09-12T04:09:42.674Z,95824.59
2018-09-12T04:12:10.575Z,95817.14
2018-09-12T04:14:38.468Z,95818.37
2018-09-12T04:17:06.441Z,95821.78
2018-09-12T04:19:34.941Z,95823.30
2018-09-12T04:22:03.048Z,95827.52
2018-09-12T04:24:31.161Z,95826.98
2018-09-12T04:26:59.202Z,95827.24
2018-09-12T04:29:27.106Z,95827.69
2018-09-12T04:31:55.056Z,95835.20
2018-09-12T04:34:23.026Z,95829.45
2018-09-12T04:36:51.303Z,95829.56
2018-09-12T04:39:19.266Z,95833.70
2018-09-12T04:41:49.393Z,95835.42
2018-09-12T04:44:17.416Z,95840.50
2018-09-12T04:46:45.549Z,95849.08
2018-09-12T04:49:13.728Z,95849.10
2018-09-12T04:51:42.110Z,95858.92
2018-09-12T04:54:10.024Z,95866.13
2018-09-12T04:56:38.986Z,95864.77
2018-09-12T04:59:06.997Z,95863.91
2018-09-12T05:01:34.901Z,95861.08
2018-09-12T05:04:02.901Z,95868.67
2018-09-12T05:06:30.922Z,95866.11
2018-09-12T05:08:58.892Z,95872.32
2018-09-12T05:11:27.105Z,95876.00
2018-09-12T05:13:55.075Z,95880.44
2018-09-12T05:16:23.073Z,95852.09
2018-09-12T05:18:51.046Z,95875.87
2018-09-12T05:21:19.054Z,95875.38
2018-09-12T05:23:46.994Z,95867.53
2018-09-12T05:26:14.869Z,95863.47
2018-09-12T05:28:42.842Z,95863.95
2018-09-12T05:31:10.898Z,95865.91
2018-09-12T05:33:38.843Z,95866.95
2018-09-12T05:36:07.023Z,95867.71
2018-09-12T05:38:34.942Z,95860.15
2018-09-12T05:41:02.946Z,95861.22
2018-09-12T05:43:30.854Z,95857.87
2018-09-12T05:45:58.789Z,95853.94
2018-09-12T05:48:26.781Z,95862.41
2018-09-12T05:50:54.751Z,95859.23
2018-09-12T05:53:22.883Z,95859.34
2018-09-12T05:55:50.949Z,95862.63
2018-09-12T05:58:18.911Z,95855.87
2018-09-12T06:00:47.166Z,95858.42
2018-09-12T06:03:15.349Z,95860.25
2018-09-12T06:05:44.782Z,95862.69
2018-09-12T06:08:15.496Z,95852.55
2018-09-12T06:10:43.660Z,95856.31
2018-09-12T06:13:11.653Z,95859.19
2018-09-12T06:15:39.880Z,95860.89
2018-09-12T06:18:07.832Z,95856.05
2018-09-12T06:20:36.081Z,95866.31
2018-09-12T06:23:03.983Z,95856.69
2018-09-12T06:25:31.944Z,95854.48
2018-09-12T06:27:59.986Z,95852.91
2018-09-12T06:30:28.122Z,95859.12
2018-09-12T06:32:56.166Z,95853.52
2018-09-12T06:35:24.180Z,95859.30
2018-09-12T06:37:52.266Z,95853.80
2018-09-12T06:40:20.454Z,95851.36
2018-09-12T06:42:48.561Z,95842.94
2018-09-12T06:45:16.688Z,95855.52
2018-09-12T06:47:45.059Z,95840.34
2018-09-12T06:50:12.985Z,95848.34
2018-09-12T06:52:40.966Z,95852.38
2018-09-12T06:55:09.027Z,95847.84
2018-09-12T06:57:37.176Z,95840.80
2018-09-12T07:00:05.536Z,95848.84
2018-09-12T07:02:33.668Z,95850.91
2018-09-12T07:05:01.625Z,95850.73
2018-09-12T07:07:29.729Z,95847.58
2018-09-12T07:09:57.606Z,95847.53
2018-09-12T07:12:25.562Z,95850.37
2018-09-12T07:14:55.134Z,95843.14
2018-09-12T07:17:23.110Z,95845.41
2018-09-12T07:19:51.178Z,95847.78
2018-09-12T07:22:19.371Z,95851.13
2018-09-12T07:24:47.549Z,95853.32
2018-09-12T07:27:15.418Z,95861.38
2018-09-12T07:29:44.063Z,95854.61
2018-09-12T07:32:12.560Z,95857.04
2018-09-12T07:34:40.763Z,95852.29
2018-09-12T07:37:09.572Z,95856.15
2018-09-12T07:39:43.140Z,95860.31
2018-09-12T07:42:11.594Z,95853.70
2018-09-12T07:44:41.036Z,95853.85
2018-09-12T07:47:09.714Z,95860.73
2018-09-12T07:49:38.033Z,95856.70
2018-09-12T07:52:06.030Z,95852.51
2018-09-12T07:54:35.094Z,95848.50
2018-09-12T07:57:03.684Z,95847.41
2018-09-12T07:59:38.715Z,95846.41
2018-09-12T08:02:07.642Z,95847.20
2018-09-12T08:04:35.583Z,95845.95
2018-09-12T08:07:03.980Z,95851.31
2018-09-12T08:09:31.926Z,95848.06
2018-09-12T08:12:00.122Z,95839.87
2018-09-12T08:14:28.161Z,95844.41
2018-09-12T08:16:56.310Z,95836.56
2018-09-12T08:19:24.599Z,95826.72
2018-09-12T08:21:52.665Z,95820.30
2018-09-12T08:24:20.848Z,95818.31
2018-09-12T08:26:48.840Z,95825.61
2018-09-12T08:29:16.725Z,95812.30
2018-09-12T08:31:44.916Z,95821.92
2018-09-12T08:34:12.925Z,95816.20
2018-09-12T08:36:41.163Z,95810.59
2018-09-12T08:39:09.502Z,95815.51
2018-09-12T08:41:37.566Z,95815.52
2018-09-12T08:44:05.983Z,95813.27
2018-09-12T08:46:34.211Z,95814.20
2018-09-12T08:49:02.265Z,95815.55
2018-09-12T08:51:30.294Z,95810.94
2018-09-12T08:53:58.409Z,95801.20
2018-09-12T08:56:26.606Z,95801.86
2018-09-12T08:58:54.951Z,95798.30
2018-09-12T09:01:22.976Z,95801.92
2018-09-12T09:03:51.133Z,95793.42
2018-09-12T09:06:19.297Z,95786.53
2018-09-12T09:08:47.416Z,95787.47
2018-09-12T09:11:15.328Z,95791.25
2018-09-12T09:13:43.437Z,95790.18
2018-09-12T09:16:11.503Z,95784.61
2018-09-12T09:18:39.622Z,95784.90
2018-09-12T09:21:07.919Z,95779.25
2018-09-12T09:23:35.946Z,95784.28
2018-09-12T09:26:03.983Z,95787.83
2018-09-12T09:28:32.148Z,95774.44
2018-09-12T09:31:00.236Z,95781.31
2018-09-12T09:33:28.334Z,95774.64
2018-09-12T09:35:56.504Z,95769.38
2018-09-12T09:38:24.485Z,95748.06
2018-09-12T09:40:52.577Z,95767.88
2018-09-12T09:43:20.645Z,95771.52
2018-09-12T09:45:48.690Z,95772.84
2018-09-12T09:48:16.774Z,95765.72
2018-09-12T09:50:45.763Z,95768.42
2018-09-12T09:53:13.744Z,95760.64
2018-09-12T09:55:41.826Z,95763.90
2018-09-12T09:58:09.874Z,95768.17
2018-09-12T10:00:43.246Z,95770.47
2018-09-12T10:03:17.545Z,95761.17
2018-09-12T10:05:51.240Z,95768.27
2018-09-12T10:08:24.524Z,95760.67
2018-09-12T10:11:01.434Z,95758.02
2018-09-12T10:13:29.409Z,95755.39
2018-09-12T10:15:58.296Z,95754.20
2018-09-12T10:18:25.886Z,95753.98
2018-09-12T10:20:54.008Z,95744.73
2018-09-12T10:23:22.969Z,95735.91
2018-09-12T10:25:51.533Z,95739.29
2018-09-12T10:28:19.658Z,95738.44
2018-09-12T10:30:47.895Z,95737.44
2018-09-12T10:33:16.059Z,95741.81
2018-09-12T10:35:44.070Z,95567.30
2018-09-12T10:38:12.103Z,95747.37
2018-09-12T10:40:40.063Z,95737.42
2018-09-12T10:43:10.479Z,95740.47
2018-09-12T10:45:38.754Z,95748.15
2018-09-12T10:48:09.207Z,95738.21
2018-09-12T10:50:37.719Z,95736.73
2018-09-12T10:53:08.350Z,95733.10
2018-09-12T10:55:36.466Z,95730.19
2018-09-12T10:58:04.468Z,95725.69
2018-09-12T11:00:32.512Z,95725.50
2018-09-12T11:03:00.547Z,95718.80
2018-09-12T11:05:28.621Z,95724.83
2018-09-12T11:07:56.627Z,95723.69
2018-09-12T11:10:24.640Z,95718.98
2018-09-12T11:12:52.520Z,95720.98
2018-09-12T11:15:20.809Z,95724.48
2018-09-12T11:17:48.798Z,95709.53
2018-09-12T11:20:17.814Z,95718.80
2018-09-12T11:22:45.768Z,95716.80
2018-09-12T11:25:13.754Z,95721.12
2018-09-12T11:27:41.784Z,95715.48
2018-09-12T11:30:09.812Z,95720.05
2018-09-12T11:32:37.830Z,95722.92
2018-09-12T11:35:06.292Z,95722.22
2018-09-12T11:37:34.228Z,95713.00
2018-09-12T11:40:02.264Z,95712.52
2018-09-12T11:42:31.202Z,95701.80
2018-09-12T11:44:59.248Z,95697.09
2018-09-12T11:47:27.251Z,95692.55
2018-09-12T11:49:59.738Z,95691.90
2018-09-12T11:52:27.987Z,95689.02
2018-09-12T11:54:56.656Z,95692.91
2018-09-12T11:57:24.590Z,95686.28
2018-09-12T11:59:52.474Z,95683.81
2018-09-12T12:02:20.787Z,95673.71
2018-09-12T12:04:49.304Z,95672.14
2018-09-12T12:07:17.289Z,95670.55
2018-09-12T12:09:45.722Z,95660.73
2018-09-12T12:12:13.811Z,95649.91
2018-09-12T12:14:42.195Z,95658.04
2018-09-12T12:17:10.179Z,95665.02
2018-09-12T12:19:38.084Z,95664.27
2018-09-12T12:22:06.101Z,95659.25
2018-09-12T12:24:33.999Z,95659.79
2018-09-12T12:27:02.729Z,95653.89
2018-09-12T12:29:30.814Z,95652.64
2018-09-12T12:31:59.024Z,95648.98
2018-09-12T12:34:27.050Z,95651.64
2018-09-12T12:36:54.927Z,95645.43
2018-09-12T12:39:23.013Z,95651.13
2018-09-12T12:41:50.994Z,95639.50
2018-09-12T12:44:19.007Z,95652.23
2018-09-12T12:46:47.266Z,95646.73
2018-09-12T12:49:15.171Z,95642.39
2018-09-12T12:51:43.164Z,95643.07
2018-09-12T12:54:11.112Z,95644.53
2018-09-12T12:56:39.266Z,95638.87
2018-09-12T12:59:14.519Z,95645.85
2018-09-12T13:01:48.938Z,95638.66
2018-09-12T13:04:17.055Z,95650.67
2018-09-12T13:06:45.210Z,95642.84
2018-09-12T13:09:13.587Z,95642.07
2018-09-12T13:11:41.662Z,95632.08
2018-09-12T13:14:16.544Z,95639.25
2018-09-12T13:16:47.513Z,95633.89
2018-09-12T13:19:15.585Z,95634.77
2018-09-12T13:21:48.353Z,95634.48
2018-09-12T13:24:16.481Z,95633.59
2018-09-12T13:26:44.473Z,95633.52
2018-09-12T13:29:12.494Z,95634.66
2018-09-12T13:31:41.067Z,95632.14
2018-09-12T13:34:09.083Z,95636.49
2018-09-12T13:36:37.161Z,95641.94
2018-09-12T13:39:09.527Z,95633.80
2018-09-12T13:41:37.556Z,95630.91
2018-09-12T13:44:05.472Z,95636.59
2018-09-12T13:46:33.500Z,95634.11
2018-09-12T13:49:01.453Z,95628.38
2018-09-12T13:51:29.858Z,95621.02
2018-09-12T13:53:57.921Z,95619.37
2018-09-12T13:56:25.858Z,95620.72
2018-09-12T13:58:53.850Z,95618.10
2018-09-12T14:01:21.982Z,95606.44
2018-09-12T14:03:49.883Z,95615.16
2018-09-12T14:06:18.052Z,95609.48
2018-09-12T14:08:45.998Z,95611.96
2018-09-12T14:11:14.784Z,95608.31
2018-09-12T14:13:42.715Z,95608.89
2018-09-12T14:16:10.648Z,95610.02
2018-09-12T14:18:38.697Z,95611.08
2018-09-12T14:21:06.677Z,95611.03
2018-09-12T14:23:34.502Z,95617.45
2018-09-12T14:26:02.734Z,95612.25
2018-09-12T14:28:30.642Z,95607.84
2018-09-12T14:30:58.638Z,95611.13
2018-09-12T14:33:27.262Z,95605.78
2018-09-12T14:35:55.308Z,95611.92
2018-09-12T14:38:23.322Z,95605.97
2018-09-12T14:40:51.314Z,95603.25
2018-09-12T14:43:19.498Z,95596.83
2018-09-12T14:45:48.219Z,95600.67
2018-09-12T14:48:16.388Z,95604.32
2018-09-12T14:50:46.191Z,95603.75
2018-09-12T14:53:14.100Z,95595.74
2018-09-12T14:55:42.400Z,95599.12
2018-09-12T14:58:10.418Z,95594.97
2018-09-12T15:00:38.494Z,95592.03
2018-09-12T15:03:08.708Z,95588.89
2018-09-12T15:05:38.890Z,95593.96
2018-09-12T15:08:06.881Z,95593.09
2018-09-12T15:10:34.863Z,95593.34
2018-09-12T15:13:02.839Z,95583.14
2018-09-12T15:15:31.940Z,95591.38
2018-09-12T15:17:59.970Z,95601.45
2018-09-12T15:20:27.926Z,95602.66
2018-09-12T15:22:55.975Z,95603.34
2018-09-12T15:25:23.957Z,95596.72
2018-09-12T15:27:52.368Z,95597.56
2018-09-12T15:30:20.368Z,95600.28
2018-09-12T15:32:48.462Z,95605.53
2018-09-12T15:35:16.528Z,95593.23
2018-09-12T15:37:44.526Z,95590.98
2018-09-12T15:40:14.715Z,95582.29
2018-09-12T15:42:44.768Z,95597.36
2018-09-12T15:45:12.778Z,95579.99
2018-09-12T15:47:43.816Z,95583.73
2018-09-12T15:50:14.417Z,95581.72
2018-09-12T15:52:43.226Z,95577.59
2018-09-12T15:55:11.163Z,95584.15
2018-09-12T15:57:39.265Z,95580.23
2018-09-12T16:00:07.374Z,95583.13
2018-09-12T16:02:35.280Z,95589.27
2018-09-12T16:05:03.385Z,95579.91
2018-09-12T16:07:31.233Z,95568.05
2018-09-12T16:09:59.430Z,95568.05
2018-09-12T16:12:27.620Z,95573.17
2018-09-12T16:14:56.470Z,95563.62
2018-09-12T16:17:24.497Z,95563.91
2018-09-12T16:20:25.447Z,95568.13
2018-09-12T16:22:54.141Z,95577.16
2018-09-12T16:25:25.269Z,95577.16
2018-09-12T16:27:53.305Z,95571.98
2018-09-12T16:30:21.341Z,95572.66
2018-09-12T16:32:49.349Z,95573.05
2018-09-12T16:35:17.366Z,95575.80
2018-09-12T16:37:45.320Z,95583.68
2018-09-12T16:40:18.224Z,95579.27
2018-09-12T16:42:47.999Z,95579.55
2018-09-12T16:45:17.891Z,95580.17
2018-09-12T16:47:45.914Z,95574.47
2018-09-12T16:50:16.997Z,95572.22
2018-09-12T16:52:46.054Z,95489.59
2018-09-12T16:55:15.396Z,95559.64
2018-09-12T16:57:45.232Z,95554.12
2018-09-12T17:02:58.017Z,95562.73
2018-09-12T17:05:26.885Z,95561.56
2018-09-12T17:07:54.872Z,95569.88
2018-09-12T17:10:24.243Z,95576.88
2018-09-12T17:12:53.335Z,95570.25
2018-09-12T17:15:27.362Z,95561.98
2018-09-12T17:17:55.454Z,95565.13
2018-09-12T17:20:30.672Z,95569.41
2018-09-12T17:22:58.846Z,95581.55
2018-09-12T17:25:29.258Z,95584.19
2018-09-12T17:28:03.380Z,95572.92
2018-09-12T17:30:35.417Z,95580.17
2018-09-12T17:33:05.551Z,95577.36
2018-09-12T17:35:33.942Z,95571.31
2018-09-12T17:38:43.219Z,95588.31
2018-09-12T17:41:12.053Z,95596.16
2018-09-12T17:43:42.442Z,95597.11
2018-09-12T17:46:11.973Z,95581.48
2018-09-12T17:52:02.346Z,95591.66
2018-09-12T17:54:33.272Z,95588.05
2018-09-12T17:57:03.430Z,95590.88
2018-09-12T17:59:42.984Z,95590.41
2018-09-12T18:02:21.968Z,95590.78
2018-09-12T18:04:50.856Z,95605.59
2018-09-12T18:07:51.654Z,95604.11
2018-09-12T18:10:20.542Z,95604.56
2018-09-12T18:12:48.651Z,95606.80
2018-09-12T18:15:16.860Z,95598.28
2018-09-12T18:17:45.046Z,95596.38
2018-09-12T18:20:13.383Z,95599.45
2018-09-12T18:22:42.928Z,95599.77
2018-09-12T18:25:12.230Z,95612.01
2018-09-12T18:27:40.310Z,95604.13
2018-09-12T18:30:08.896Z,95614.41
2018-09-12T18:32:37.403Z,95622.25
2018-09-12T18:35:09.041Z,95627.72
2018-09-12T18:37:41.589Z,95626.48
2018-09-12T18:40:10.919Z,95629.62
2018-09-12T18:42:39.126Z,95631.88
2018-09-12T18:45:11.120Z,95633.89
2018-09-12T18:50:23.290Z,95626.50
2018-09-12T18:52:55.429Z,95625.87
2018-09-12T18:55:24.744Z,95629.34
2018-09-12T18:57:52.704Z,95639.33
2018-09-12T19:00:21.224Z,95629.92
2018-09-12T19:02:49.196Z,95634.05
2018-09-12T19:05:17.057Z,95624.29
2018-09-12T19:07:45.086Z,95625.27
2018-09-12T19:10:13.143Z,95626.53
2018-09-12T19:12:41.061Z,95615.89
2018-09-12T19:15:09.012Z,95612.75
2018-09-12T19:17:37.009Z,95618.27
2018-09-12T19:20:05.263Z,95619.55
2018-09-12T19:22:33.238Z,95623.55
2018-09-12T19:25:01.202Z,95637.09
2018-09-12T19:27:29.184Z,95626.80
2018-09-12T19:29:57.188Z,95634.18
2018-09-12T19:32:26.214Z,95634.20
2018-09-12T19:34:54.257Z,95628.83
2018-09-12T19:37:22.448Z,95626.30
2018-09-12T19:40:04.347Z,95622.54
2018-09-12T19:42:32.715Z,95619.79
2018-09-12T19:45:00.711Z,95623.03
2018-09-12T19:47:28.570Z,95617.44
2018-09-12T19:49:56.571Z,95621.87
2018-09-12T19:52:24.601Z,95621.88
2018-09-12T19:54:52.664Z,95619.27
2018-09-12T19:57:20.754Z,95619.62
2018-09-12T19:59:48.998Z,95613.48
2018-09-12T20:02:32.658Z,95616.22
2018-09-12T20:05:00.928Z,95614.12
2018-09-12T20:07:30.355Z,95616.97
2018-09-12T20:09:58.525Z,95609.35
2018-09-12T20:12:27.192Z,95612.37
2018-09-12T20:14:55.294Z,95619.62
2018-09-12T20:17:23.359Z,95616.38
2018-09-12T20:19:51.408Z,95610.11
2018-09-12T20:22:19.548Z,95614.47
2018-09-12T20:24:47.836Z,95618.73
2018-09-12T20:27:15.940Z,95611.86
2018-09-12T20:29:44.787Z,95610.84
2018-09-12T20:32:12.781Z,95609.06
2018-09-12T20:34:41.312Z,95613.31
2018-09-12T20:37:10.126Z,95609.03
2018-09-12T20:39:38.245Z,95612.41
2018-09-12T20:42:06.279Z,95606.55
2018-09-12T20:44:34.284Z,95605.61
2018-09-12T20:47:02.186Z,95606.97
2018-09-12T20:49:30.027Z,95601.09
2018-09-12T20:51:57.958Z,95599.06
2018-09-12T20:54:25.890Z,95599.72
2018-09-12T20:56:53.914Z,95597.67
2018-09-12T20:59:21.881Z,95603.10
2018-09-12T21:01:49.821Z,95601.59
2018-09-12T21:04:17.805Z,95603.45
2018-09-12T21:06:45.766Z,95599.28
2018-09-12T21:09:20.258Z,95603.74
2018-09-12T21:11:48.171Z,95606.36
2018-09-12T21:14:16.325Z,95598.89
2018-09-12T21:16:44.348Z,95594.23
2018-09-12T21:19:12.314Z,95598.50
2018-09-12T21:21:40.315Z,95603.66
2018-09-12T21:24:08.189Z,95598.50
2018-09-12T21:26:36.239Z,95594.10
2018-09-12T21:29:04.193Z,95590.89
2018-09-12T21:31:32.070Z,95586.14
2018-09-12T21:34:00.165Z,95593.88
2018-09-12T21:36:28.092Z,95595.17
2018-09-12T21:38:56.015Z,95595.89
2018-09-12T21:41:23.984Z,95586.64
2018-09-12T21:43:51.875Z,95584.05
2018-09-12T21:46:21.009Z,95582.45
2018-09-12T21:48:48.929Z,95579.86
2018-09-12T21:51:16.889Z,95578.34
2018-09-12T21:53:44.922Z,95583.99
2018-09-12T21:56:12.863Z,95577.31
2018-09-12T21:58:40.805Z,95574.89
2018-09-12T22:01:08.747Z,95573.73
2018-09-12T22:03:36.623Z,95570.73
2018-09-12T22:06:04.693Z,95572.36
2018-09-12T22:08:32.611Z,95574.92
2018-09-12T22:11:00.575Z,95575.30
2018-09-12T22:13:28.541Z,95582.09
2018-09-12T22:15:56.479Z,95575.09
2018-09-12T22:18:24.415Z,95578.96
2018-09-12T22:20:52.446Z,95583.80
2018-09-12T22:23:20.405Z,95586.38
2018-09-12T22:25:48.370Z,95582.55
2018-09-12T22:28:16.295Z,95572.72
2018-09-12T22:30:44.542Z,95579.45
2018-09-12T22:33:12.478Z,95575.81
2018-09-12T22:35:41.729Z,95582.55
2018-09-12T22:38:09.672Z,95572.30
2018-09-12T22:40:37.596Z,95572.69
2018-09-12T22:43:05.642Z,95572.69
2018-09-12T22:45:33.578Z,95568.23
2018-09-12T22:48:01.599Z,95559.53
2018-09-12T22:50:29.543Z,95561.78
2018-09-12T22:52:57.459Z,95557.81
2018-09-12T22:55:25.376Z,95556.94
2018-09-12T22:57:53.463Z,95557.84
2018-09-12T23:00:21.773Z,95555.55
2018-09-12T23:02:49.814Z,95564.25
2018-09-12T23:05:18.059Z,95558.00
2018-09-12T23:07:46.025Z,95562.68
2018-09-12T23:10:13.945Z,95562.20
2018-09-12T23:12:41.885Z,95553.00
2018-09-12T23:15:09.821Z,95553.44
2018-09-12T23:17:37.797Z,95548.37
2018-09-12T23:20:06.113Z,95545.62
2018-09-12T23:22:34.063Z,95548.39
2018-09-12T23:25:02.151Z,95545.41
2018-09-12T23:27:30.271Z,95546.70
2018-09-12T23:29:58.125Z,95549.73
2018-09-12T23:32:26.045Z,95550.27
2018-09-12T23:34:54.162Z,95550.83
2018-09-12T23:37:22.097Z,95549.26
2018-09-12T23:39:50.194Z,95549.03
2018-09-12T23:42:18.193Z,95544.63
2018-09-12T23:44:46.532Z,95535.78
2018-09-12T23:47:14.502Z,95531.55
2018-09-12T23:49:42.676Z,95530.59
2018-09-12T23:52:10.709Z,95527.03
2018-09-12T23:54:39.599Z,95529.06
2018-09-12T23:57:07.530Z,95538.69
2018-09-12T23:59:35.463Z,95537.38
